Terminal Aerodrome Forecast
Issued by NWS

Home | Current Version | Previous Version | Graphics & Text | Print | Product List | Glossary On
Versions: 1 2 3 4 5 6 7 8 9 10 11 12 13 14 15 16 17 18 19 20 21 22 23
700
FTUS43 KGRB 161011 AAA
TAFCWA
TAF AMD
KCWA 161011Z 1610/1706 VRB04KT P6SM SCT060 BKN250
      TEMPO 1610/1614 3SM BR SCT030 BKN060
     FM161500 12008KT P6SM SCT050 BKN120
     FM170000 11010KT P6SM SCT025 OVC050 PROB30 1703/1706 5SM -TSRA
      OVC025CB=

USA.gov is the U.S. government's official web portal to all federal, state and local government web resources and services.